sensor_id;sensor_type;location;lat;lon;timestamp;P1;durP1;ratioP1;P2;durP2;ratioP2
75272;SDS011;63869;52.344;16.928;2023-02-18T04:02:45;7.18;;;2.30;;
75272;SDS011;63869;52.344;16.928;2023-02-18T04:05:10;9.10;;;1.80;;
75272;SDS011;63869;52.344;16.928;2023-02-18T04:07:36;7.53;;;1.80;;
75272;SDS011;63869;52.344;16.928;2023-02-18T04:10:02;11.15;;;2.00;;
75272;SDS011;63869;52.344;16.928;2023-02-18T04:12:29;7.18;;;1.70;;
75272;SDS011;63869;52.344;16.928;2023-02-18T04:14:54;9.80;;;1.90;;
75272;SDS011;63869;52.344;16.928;2023-02-18T04:17:19;7.28;;;2.47;;
75272;SDS011;63869;52.344;16.928;2023-02-18T04:19:44;7.63;;;2.80;;
75272;SDS011;63869;52.344;16.928;2023-02-18T04:22:10;10.23;;;2.70;;
75272;SDS011;63869;52.344;16.928;2023-02-18T04:24:35;10.15;;;2.65;;
75272;SDS011;63869;52.344;16.928;2023-02-18T04:27:01;3.17;;;2.20;;
75272;SDS011;63869;52.344;16.928;2023-02-18T04:29:26;7.68;;;2.17;;
75272;SDS011;63869;52.344;16.928;2023-02-18T04:31:52;8.30;;;1.92;;
75272;SDS011;63869;52.344;16.928;2023-02-18T04:34:17;5.00;;;2.00;;
75272;SDS011;63869;52.344;16.928;2023-02-18T04:36:42;9.38;;;2.22;;
75272;SDS011;63869;52.344;16.928;2023-02-18T04:39:07;5.72;;;2.00;;
75272;SDS011;63869;52.344;16.928;2023-02-18T04:41:33;6.53;;;2.00;;
75272;SDS011;63869;52.344;16.928;2023-02-18T04:43:59;9.18;;;2.20;;
75272;SDS011;63869;52.344;16.928;2023-02-18T04:46:25;7.97;;;2.03;;
75272;SDS011;63869;52.344;16.928;2023-02-18T04:48:52;9.70;;;2.00;;
75272;SDS011;63869;52.344;16.928;2023-02-18T04:51:18;8.65;;;2.03;;
75272;SDS011;63869;52.344;16.928;2023-02-18T04:53:43;10.30;;;1.80;;
75272;SDS011;63869;52.344;16.928;2023-02-18T04:56:10;6.18;;;1.77;;
75272;SDS011;63869;52.344;16.928;2023-02-18T04:58:35;8.75;;;2.33;;
75272;SDS011;63869;52.344;16.928;2023-02-18T05:01:01;8.82;;;2.10;;
75272;SDS011;63869;52.344;16.928;2023-02-18T05:03:27;7.97;;;1.83;;
75272;SDS011;63869;52.344;16.928;2023-02-18T05:05:53;6.47;;;2.25;;
75272;SDS011;63869;52.344;16.928;2023-02-18T05:08:19;7.85;;;1.90;;
75272;SDS011;63869;52.344;16.928;2023-02-18T05:10:46;7.38;;;1.70;;
75272;SDS011;63869;52.344;16.928;2023-02-18T05:13:11;8.82;;;1.95;;
75272;SDS011;63869;52.344;16.928;2023-02-18T05:15:36;6.55;;;2.08;;
75272;SDS011;63869;52.344;16.928;2023-02-18T05:18:02;6.20;;;1.88;;
75272;SDS011;63869;52.344;16.928;2023-02-18T05:20:28;7.32;;;1.83;;
75272;SDS011;63869;52.344;16.928;2023-02-18T05:22:53;8.50;;;2.03;;
75272;SDS011;63869;52.344;16.928;2023-02-18T05:25:18;9.27;;;2.10;;
75272;SDS011;63869;52.344;16.928;2023-02-18T05:27:44;8.68;;;2.53;;
75272;SDS011;63869;52.344;16.928;2023-02-18T05:30:09;10.90;;;2.28;;
75272;SDS011;63869;52.344;16.928;2023-02-18T05:32:35;9.32;;;2.05;;
75272;SDS011;63869;52.344;16.928;2023-02-18T05:35:00;13.50;;;2.67;;
75272;SDS011;63869;52.344;16.928;2023-02-18T05:37:25;11.93;;;2.50;;
75272;SDS011;63869;52.344;16.928;2023-02-18T05:39:50;10.55;;;2.53;;
75272;SDS011;63869;52.344;16.928;2023-02-18T05:42:16;4.63;;;1.52;;
75272;SDS011;63869;52.344;16.928;2023-02-18T05:44:41;10.95;;;2.67;;
75272;SDS011;63869;52.344;16.928;2023-02-18T05:47:07;10.20;;;2.40;;
75272;SDS011;63869;52.344;16.928;2023-02-18T05:49:35;10.25;;;2.30;;
75272;SDS011;63869;52.344;16.928;2023-02-18T05:52:01;7.93;;;2.53;;
75272;SDS011;63869;52.344;16.928;2023-02-18T05:54:27;7.85;;;2.25;;
75272;SDS011;63869;52.344;16.928;2023-02-18T05:56:53;6.57;;;1.80;;
75272;SDS011;63869;52.344;16.928;2023-02-18T05:59:19;7.90;;;2.13;;
75272;SDS011;63869;52.344;16.928;2023-02-18T06:01:44;7.28;;;2.17;;
75272;SDS011;63869;52.344;16.928;2023-02-18T06:04:10;8.27;;;2.40;;
75272;SDS011;63869;52.344;16.928;2023-02-18T06:06:35;11.80;;;2.17;;
75272;SDS011;63869;52.344;16.928;2023-02-18T06:09:01;9.13;;;1.90;;
75272;SDS011;63869;52.344;16.928;2023-02-18T06:11:28;5.38;;;1.50;;
75272;SDS011;63869;52.344;16.928;2023-02-18T06:13:53;5.68;;;2.05;;
75272;SDS011;63869;52.344;16.928;2023-02-18T06:16:18;10.05;;;1.52;;
75272;SDS011;63869;52.344;16.928;2023-02-18T06:18:43;8.40;;;2.17;;
75272;SDS011;63869;52.344;16.928;2023-02-18T06:21:09;3.30;;;1.83;;
75272;SDS011;63869;52.344;16.928;2023-02-18T06:23:37;8.68;;;1.73;;
75272;SDS011;63869;52.344;16.928;2023-02-18T06:26:03;4.78;;;1.40;;
75272;SDS011;63869;52.344;16.928;2023-02-18T06:28:30;8.10;;;1.77;;
75272;SDS011;63869;52.344;16.928;2023-02-18T06:30:56;9.15;;;1.80;;
75272;SDS011;63869;52.344;16.928;2023-02-18T06:33:21;6.15;;;1.73;;
75272;SDS011;63869;52.344;16.928;2023-02-18T06:35:56;7.18;;;2.10;;
75272;SDS011;63869;52.344;16.928;2023-02-18T06:38:26;8.13;;;1.67;;
75272;SDS011;63869;52.344;16.928;2023-02-18T06:40:51;8.00;;;2.05;;
75272;SDS011;63869;52.344;16.928;2023-02-18T06:43:17;5.97;;;2.38;;
75272;SDS011;63869;52.344;16.928;2023-02-18T06:45:43;5.85;;;2.00;;
75272;SDS011;63869;52.344;16.928;2023-02-18T06:48:08;5.90;;;2.10;;
75272;SDS011;63869;52.344;16.928;2023-02-18T06:50:34;8.40;;;2.20;;
75272;SDS011;63869;52.344;16.928;2023-02-18T06:52:59;4.35;;;1.85;;
75272;SDS011;63869;52.344;16.928;2023-02-18T06:55:24;6.88;;;2.78;;
75272;SDS011;63869;52.344;16.928;2023-02-18T06:57:50;10.10;;;2.35;;
75272;SDS011;63869;52.344;16.928;2023-02-18T07:00:17;9.93;;;1.77;;
75272;SDS011;63869;52.344;16.928;2023-02-18T07:02:42;10.65;;;2.30;;
75272;SDS011;63869;52.344;16.928;2023-02-18T07:05:08;12.77;;;3.80;;
75272;SDS011;63869;52.344;16.928;2023-02-18T07:07:33;8.65;;;1.92;;
75272;SDS011;63869;52.344;16.928;2023-02-18T07:09:59;10.50;;;3.28;;
75272;SDS011;63869;52.344;16.928;2023-02-18T07:12:25;5.18;;;2.30;;
75272;SDS011;63869;52.344;16.928;2023-02-18T07:14:51;6.95;;;2.30;;
75272;SDS011;63869;52.344;16.928;2023-02-18T07:17:16;10.00;;;2.17;;
75272;SDS011;63869;52.344;16.928;2023-02-18T07:19:42;6.22;;;2.92;;
75272;SDS011;63869;52.344;16.928;2023-02-18T07:22:07;5.30;;;2.20;;
75272;SDS011;63869;52.344;16.928;2023-02-18T07:24:32;8.85;;;3.03;;
75272;SDS011;63869;52.344;16.928;2023-02-18T07:26:58;9.05;;;2.47;;
75272;SDS011;63869;52.344;16.928;2023-02-18T07:29:23;8.50;;;2.75;;
75272;SDS011;63869;52.344;16.928;2023-02-18T07:31:50;9.63;;;2.45;;
75272;SDS011;63869;52.344;16.928;2023-02-18T07:34:15;11.65;;;2.97;;
75272;SDS011;63869;52.344;16.928;2023-02-18T07:36:41;6.32;;;1.70;;
75272;SDS011;63869;52.344;16.928;2023-02-18T07:39:06;7.90;;;2.85;;
75272;SDS011;63869;52.344;16.928;2023-02-18T07:41:31;9.20;;;3.10;;
75272;SDS011;63869;52.344;16.928;2023-02-18T07:43:57;10.75;;;3.17;;
75272;SDS011;63869;52.344;16.928;2023-02-18T07:46:22;14.77;;;5.13;;
75272;SDS011;63869;52.344;16.928;2023-02-18T07:48:48;9.45;;;2.00;;
75272;SDS011;63869;52.344;16.928;2023-02-18T07:51:13;9.25;;;2.42;;
75272;SDS011;63869;52.344;16.928;2023-02-18T07:53:39;8.30;;;2.83;;
75272;SDS011;63869;52.344;16.928;2023-02-18T07:56:04;10.60;;;3.30;;
75272;SDS011;63869;52.344;16.928;2023-02-18T07:58:31;11.68;;;3.33;;
75272;SDS011;63869;52.344;16.928;2023-02-18T08:00:58;13.52;;;4.07;;
75272;SDS011;63869;52.344;16.928;2023-02-18T08:03:28;14.02;;;4.15;;
75272;SDS011;63869;52.344;16.928;2023-02-18T08:05:54;6.68;;;2.55;;
75272;SDS011;63869;52.344;16.928;2023-02-18T08:08:23;10.35;;;3.40;;
75272;SDS011;63869;52.344;16.928;2023-02-18T08:10:50;8.77;;;2.50;;
75272;SDS011;63869;52.344;16.928;2023-02-18T08:13:17;9.68;;;3.97;;
75272;SDS011;63869;52.344;16.928;2023-02-18T08:15:43;6.88;;;3.22;;
75272;SDS011;63869;52.344;16.928;2023-02-18T08:18:13;11.80;;;3.78;;
75272;SDS011;63869;52.344;16.928;2023-02-18T08:20:45;8.20;;;2.45;;
75272;SDS011;63869;52.344;16.928;2023-02-18T08:23:11;10.60;;;2.85;;
75272;SDS011;63869;52.344;16.928;2023-02-18T08:25:37;10.93;;;3.78;;
75272;SDS011;63869;52.344;16.928;2023-02-18T08:28:02;8.68;;;2.25;;
75272;SDS011;63869;52.344;16.928;2023-02-18T08:30:28;6.25;;;2.35;;
75272;SDS011;63869;52.344;16.928;2023-02-18T08:32:53;10.60;;;2.90;;
75272;SDS011;63869;52.344;16.928;2023-02-18T08:35:19;9.63;;;3.05;;
75272;SDS011;63869;52.344;16.928;2023-02-18T08:37:44;8.90;;;3.20;;
75272;SDS011;63869;52.344;16.928;2023-02-18T08:40:10;15.90;;;4.38;;
75272;SDS011;63869;52.344;16.928;2023-02-18T08:42:36;8.55;;;2.33;;
75272;SDS011;63869;52.344;16.928;2023-02-18T08:45:02;6.60;;;2.20;;
75272;SDS011;63869;52.344;16.928;2023-02-18T08:47:28;12.20;;;3.25;;
75272;SDS011;63869;52.344;16.928;2023-02-18T08:49:54;12.07;;;3.28;;
75272;SDS011;63869;52.344;16.928;2023-02-18T08:52:19;12.55;;;4.53;;
75272;SDS011;63869;52.344;16.928;2023-02-18T08:54:45;10.95;;;4.20;;
75272;SDS011;63869;52.344;16.928;2023-02-18T08:57:10;10.00;;;2.50;;
75272;SDS011;63869;52.344;16.928;2023-02-18T08:59:36;10.25;;;2.97;;
75272;SDS011;63869;52.344;16.928;2023-02-18T09:02:01;14.40;;;4.30;;
75272;SDS011;63869;52.344;16.928;2023-02-18T09:04:26;7.70;;;3.30;;
75272;SDS011;63869;52.344;16.928;2023-02-18T09:06:52;9.68;;;3.00;;
75272;SDS011;63869;52.344;16.928;2023-02-18T09:09:17;11.00;;;2.67;;
75272;SDS011;63869;52.344;16.928;2023-02-18T09:11:43;5.75;;;2.08;;
75272;SDS011;63869;52.344;16.928;2023-02-18T09:14:09;6.82;;;2.75;;
75272;SDS011;63869;52.344;16.928;2023-02-18T09:16:35;8.45;;;2.65;;
75272;SDS011;63869;52.344;16.928;2023-02-18T09:19:02;8.13;;;2.83;;
75272;SDS011;63869;52.344;16.928;2023-02-18T09:21:27;11.65;;;3.40;;
75272;SDS011;63869;52.344;16.928;2023-02-18T09:23:53;8.85;;;2.70;;
75272;SDS011;63869;52.344;16.928;2023-02-18T09:26:19;8.52;;;2.17;;
75272;SDS011;63869;52.344;16.928;2023-02-18T09:28:47;6.47;;;2.80;;
75272;SDS011;63869;52.344;16.928;2023-02-18T09:31:14;7.60;;;2.40;;
75272;SDS011;63869;52.344;16.928;2023-02-18T09:33:42;8.32;;;2.50;;
75272;SDS011;63869;52.344;16.928;2023-02-18T09:36:09;7.13;;;1.85;;
75272;SDS011;63869;52.344;16.928;2023-02-18T09:38:35;9.50;;;2.30;;
75272;SDS011;63869;52.344;16.928;2023-02-18T09:41:01;10.38;;;2.10;;
75272;SDS011;63869;52.344;16.928;2023-02-18T09:43:32;9.52;;;2.42;;
75272;SDS011;63869;52.344;16.928;2023-02-18T09:46:01;4.20;;;1.85;;
75272;SDS011;63869;52.344;16.928;2023-02-18T09:48:30;5.75;;;1.55;;
75272;SDS011;63869;52.344;16.928;2023-02-18T09:50:58;5.35;;;1.77;;
75272;SDS011;63869;52.344;16.928;2023-02-18T09:53:24;8.00;;;1.83;;
75272;SDS011;63869;52.344;16.928;2023-02-18T09:55:50;8.60;;;4.18;;
75272;SDS011;63869;52.344;16.928;2023-02-18T09:58:19;9.32;;;2.80;;
75272;SDS011;63869;52.344;16.928;2023-02-18T10:00:50;6.53;;;2.10;;
75272;SDS011;63869;52.344;16.928;2023-02-18T10:03:21;5.80;;;1.95;;
75272;SDS011;63869;52.344;16.928;2023-02-18T10:05:52;8.35;;;2.78;;
75272;SDS011;63869;52.344;16.928;2023-02-18T10:08:22;5.63;;;2.05;;
75272;SDS011;63869;52.344;16.928;2023-02-18T10:10:53;6.07;;;2.10;;
75272;SDS011;63869;52.344;16.928;2023-02-18T10:13:20;4.65;;;1.95;;
75272;SDS011;63869;52.344;16.928;2023-02-18T10:15:48;8.88;;;3.60;;
75272;SDS011;63869;52.344;16.928;2023-02-18T10:18:31;6.90;;;3.08;;
75272;SDS011;63869;52.344;16.928;2023-02-18T10:21:02;5.75;;;2.80;;
75272;SDS011;63869;52.344;16.928;2023-02-18T10:23:33;6.57;;;2.97;;
75272;SDS011;63869;52.344;16.928;2023-02-18T10:26:06;5.05;;;2.50;;
75272;SDS011;63869;52.344;16.928;2023-02-18T10:28:37;5.35;;;1.90;;
75272;SDS011;63869;52.344;16.928;2023-02-18T10:31:09;6.20;;;1.60;;
75272;SDS011;63869;52.344;16.928;2023-02-18T10:33:46;5.55;;;1.73;;
75272;SDS011;63869;52.344;16.928;2023-02-18T10:36:36;6.70;;;2.37;;
75272;SDS011;63869;52.344;16.928;2023-02-18T10:39:25;5.50;;;3.05;;
75272;SDS011;63869;52.344;16.928;2023-02-18T10:42:09;5.05;;;2.08;;
75272;SDS011;63869;52.344;16.928;2023-02-18T10:50:24;6.30;;;2.85;;
75272;SDS011;63869;52.344;16.928;2023-02-18T10:53:02;3.85;;;1.40;;
75272;SDS011;63869;52.344;16.928;2023-02-18T10:55:36;5.00;;;2.35;;
75272;SDS011;63869;52.344;16.928;2023-02-18T10:58:27;4.20;;;1.88;;
75272;SDS011;63869;52.344;16.928;2023-02-18T11:00:53;3.60;;;1.80;;
75272;SDS011;63869;52.344;16.928;2023-02-18T11:03:27;4.00;;;1.45;;
75272;SDS011;63869;52.344;16.928;2023-02-18T11:06:14;4.88;;;1.80;;
75272;SDS011;63869;52.344;16.928;2023-02-18T11:09:20;4.15;;;1.80;;
75272;SDS011;63869;52.344;16.928;2023-02-18T11:12:06;3.67;;;1.75;;
75272;SDS011;63869;52.344;16.928;2023-02-18T11:14:43;4.18;;;1.58;;
75272;SDS011;63869;52.344;16.928;2023-02-18T11:19:52;6.88;;;2.20;;
75272;SDS011;63869;52.344;16.928;2023-02-18T11:22:32;4.13;;;1.77;;
75272;SDS011;63869;52.344;16.928;2023-02-18T11:25:01;4.28;;;1.83;;
75272;SDS011;63869;52.344;16.928;2023-02-18T11:27:52;3.05;;;1.42;;
75272;SDS011;63869;52.344;16.928;2023-02-18T11:32:48;3.97;;;1.73;;
75272;SDS011;63869;52.344;16.928;2023-02-18T11:35:18;3.42;;;1.60;;
75272;SDS011;63869;52.344;16.928;2023-02-18T11:37:46;6.45;;;2.90;;
75272;SDS011;63869;52.344;16.928;2023-02-18T11:40:19;4.22;;;1.75;;
75272;SDS011;63869;52.344;16.928;2023-02-18T11:42:47;5.07;;;2.70;;
75272;SDS011;63869;52.344;16.928;2023-02-18T11:45:30;2.78;;;1.70;;
75272;SDS011;63869;52.344;16.928;2023-02-18T11:48:05;7.03;;;2.25;;
75272;SDS011;63869;52.344;16.928;2023-02-18T11:50:32;4.75;;;1.92;;
75272;SDS011;63869;52.344;16.928;2023-02-18T11:52:58;4.35;;;1.50;;
75272;SDS011;63869;52.344;16.928;2023-02-18T11:55:28;6.32;;;2.40;;
75272;SDS011;63869;52.344;16.928;2023-02-18T11:57:58;6.63;;;2.00;;
75272;SDS011;63869;52.344;16.928;2023-02-18T12:00:38;2.80;;;1.60;;
75272;SDS011;63869;52.344;16.928;2023-02-18T12:06:03;6.75;;;2.75;;
75272;SDS011;63869;52.344;16.928;2023-02-18T12:08:31;3.30;;;1.65;;
75272;SDS011;63869;52.344;16.928;2023-02-18T12:11:03;4.93;;;1.50;;
75272;SDS011;63869;52.344;16.928;2023-02-18T12:13:50;5.28;;;2.17;;
75272;SDS011;63869;52.344;16.928;2023-02-18T12:27:40;5.55;;;1.58;;
75272;SDS011;63869;52.344;16.928;2023-02-18T12:33:08;5.38;;;2.00;;
75272;SDS011;63869;52.344;16.928;2023-02-18T12:40:42;4.20;;;2.17;;
75272;SDS011;63869;52.344;16.928;2023-02-18T12:46:22;5.25;;;2.00;;
75272;SDS011;63869;52.344;16.928;2023-02-18T13:13:55;7.18;;;3.15;;
75272;SDS011;63869;52.344;16.928;2023-02-18T13:16:28;9.98;;;4.30;;
75272;SDS011;63869;52.344;16.928;2023-02-18T13:18:59;11.95;;;5.13;;
75272;SDS011;63869;52.344;16.928;2023-02-18T13:21:29;9.98;;;4.20;;
75272;SDS011;63869;52.344;16.928;2023-02-18T13:24:03;10.25;;;4.13;;
75272;SDS011;63869;52.344;16.928;2023-02-18T13:26:33;7.65;;;3.40;;
75272;SDS011;63869;52.344;16.928;2023-02-18T13:37:19;7.72;;;4.40;;
75272;SDS011;63869;52.344;16.928;2023-02-18T13:39:55;7.50;;;3.67;;
75272;SDS011;63869;52.344;16.928;2023-02-18T13:47:35;8.60;;;3.78;;
75272;SDS011;63869;52.344;16.928;2023-02-18T13:55:34;16.10;;;5.93;;
75272;SDS011;63869;52.344;16.928;2023-02-18T13:58:10;13.73;;;4.80;;
75272;SDS011;63869;52.344;16.928;2023-02-18T14:00:48;12.57;;;4.63;;
75272;SDS011;63869;52.344;16.928;2023-02-18T14:06:22;9.40;;;4.70;;
75272;SDS011;63869;52.344;16.928;2023-02-18T14:08:50;14.18;;;6.20;;
75272;SDS011;63869;52.344;16.928;2023-02-18T14:11:31;16.60;;;7.65;;
75272;SDS011;63869;52.344;16.928;2023-02-18T14:22:30;10.48;;;5.22;;
75272;SDS011;63869;52.344;16.928;2023-02-18T14:27:32;10.65;;;5.32;;
75272;SDS011;63869;52.344;16.928;2023-02-18T14:30:02;15.68;;;7.32;;
75272;SDS011;63869;52.344;16.928;2023-02-18T14:32:38;15.65;;;9.07;;
75272;SDS011;63869;52.344;16.928;2023-02-18T14:35:07;16.90;;;6.70;;
75272;SDS011;63869;52.344;16.928;2023-02-18T14:37:49;30.23;;;11.10;;
75272;SDS011;63869;52.344;16.928;2023-02-18T14:40:36;41.90;;;14.93;;
75272;SDS011;63869;52.344;16.928;2023-02-18T14:46:11;32.38;;;13.70;;
75272;SDS011;63869;52.344;16.928;2023-02-18T14:51:43;28.75;;;13.02;;
75272;SDS011;63869;52.344;16.928;2023-02-18T14:54:13;55.47;;;21.90;;
75272;SDS011;63869;52.344;16.928;2023-02-18T14:57:03;48.13;;;15.93;;
75272;SDS011;63869;52.344;16.928;2023-02-18T14:59:34;21.45;;;7.90;;
75272;SDS011;63869;52.344;16.928;2023-02-18T15:02:02;16.10;;;6.78;;
75272;SDS011;63869;52.344;16.928;2023-02-18T15:04:27;15.52;;;6.18;;
75272;SDS011;63869;52.344;16.928;2023-02-18T15:06:57;23.60;;;8.82;;
75272;SDS011;63869;52.344;16.928;2023-02-18T15:09:26;18.55;;;6.85;;
75272;SDS011;63869;52.344;16.928;2023-02-18T15:12:02;10.50;;;4.38;;
75272;SDS011;63869;52.344;16.928;2023-02-18T15:14:33;21.70;;;7.55;;
75272;SDS011;63869;52.344;16.928;2023-02-18T15:17:01;23.65;;;7.30;;
75272;SDS011;63869;52.344;16.928;2023-02-18T15:19:29;23.27;;;8.60;;
75272;SDS011;63869;52.344;16.928;2023-02-18T15:22:04;36.22;;;11.23;;
75272;SDS011;63869;52.344;16.928;2023-02-18T15:27:00;33.40;;;8.00;;
75272;SDS011;63869;52.344;16.928;2023-02-18T15:29:28;34.33;;;9.23;;
75272;SDS011;63869;52.344;16.928;2023-02-18T15:31:58;23.90;;;8.60;;
75272;SDS011;63869;52.344;16.928;2023-02-18T15:36:53;17.85;;;7.63;;
75272;SDS011;63869;52.344;16.928;2023-02-18T15:39:19;73.13;;;25.48;;
75272;SDS011;63869;52.344;16.928;2023-02-18T15:41:44;91.57;;;29.05;;
75272;SDS011;63869;52.344;16.928;2023-02-18T15:44:18;30.23;;;11.82;;
75272;SDS011;63869;52.344;16.928;2023-02-18T15:46:46;54.03;;;18.17;;
75272;SDS011;63869;52.344;16.928;2023-02-18T15:49:13;23.10;;;8.07;;
75272;SDS011;63869;52.344;16.928;2023-02-18T15:51:42;19.25;;;6.43;;
75272;SDS011;63869;52.344;16.928;2023-02-18T15:54:15;12.35;;;5.32;;
75272;SDS011;63869;52.344;16.928;2023-02-18T15:56:44;10.18;;;5.15;;
75272;SDS011;63869;52.344;16.928;2023-02-18T16:01:52;12.10;;;4.30;;
75272;SDS011;63869;52.344;16.928;2023-02-18T16:04:19;10.63;;;4.88;;
75272;SDS011;63869;52.344;16.928;2023-02-18T16:06:51;12.25;;;5.13;;
75272;SDS011;63869;52.344;16.928;2023-02-18T16:09:29;13.48;;;6.45;;
75272;SDS011;63869;52.344;16.928;2023-02-18T16:11:58;11.85;;;5.40;;
75272;SDS011;63869;52.344;16.928;2023-02-18T16:17:18;9.80;;;5.05;;
75272;SDS011;63869;52.344;16.928;2023-02-18T16:22:23;10.07;;;4.05;;
75272;SDS011;63869;52.344;16.928;2023-02-18T16:24:53;11.85;;;6.72;;
75272;SDS011;63869;52.344;16.928;2023-02-18T16:27:27;9.38;;;4.30;;
75272;SDS011;63869;52.344;16.928;2023-02-18T16:29:57;13.55;;;5.78;;
75272;SDS011;63869;52.344;16.928;2023-02-18T16:32:25;9.02;;;3.67;;
75272;SDS011;63869;52.344;16.928;2023-02-18T16:34:50;7.72;;;4.05;;
75272;SDS011;63869;52.344;16.928;2023-02-18T16:37:16;8.52;;;3.70;;
75272;SDS011;63869;52.344;16.928;2023-02-18T16:40:00;7.93;;;4.00;;
75272;SDS011;63869;52.344;16.928;2023-02-18T16:42:25;8.85;;;3.78;;
75272;SDS011;63869;52.344;16.928;2023-02-18T16:44:50;9.50;;;4.10;;
75272;SDS011;63869;52.344;16.928;2023-02-18T16:47:16;10.18;;;4.22;;
75272;SDS011;63869;52.344;16.928;2023-02-18T16:49:46;13.20;;;5.38;;
75272;SDS011;63869;52.344;16.928;2023-02-18T16:52:14;12.18;;;5.45;;
75272;SDS011;63869;52.344;16.928;2023-02-18T16:54:41;15.63;;;5.35;;
75272;SDS011;63869;52.344;16.928;2023-02-18T16:57:08;11.82;;;5.22;;
75272;SDS011;63869;52.344;16.928;2023-02-18T16:59:34;13.40;;;5.07;;
75272;SDS011;63869;52.344;16.928;2023-02-18T17:01:59;14.05;;;5.72;;
75272;SDS011;63869;52.344;16.928;2023-02-18T17:04:25;21.45;;;11.05;;
75272;SDS011;63869;52.344;16.928;2023-02-18T17:06:50;20.42;;;10.32;;
75272;SDS011;63869;52.344;16.928;2023-02-18T17:09:17;32.08;;;15.55;;
75272;SDS011;63869;52.344;16.928;2023-02-18T17:11:46;32.58;;;15.75;;
75272;SDS011;63869;52.344;16.928;2023-02-18T17:14:14;40.90;;;17.17;;
75272;SDS011;63869;52.344;16.928;2023-02-18T17:16:44;44.67;;;20.83;;
75272;SDS011;63869;52.344;16.928;2023-02-18T17:19:10;42.53;;;21.95;;
75272;SDS011;63869;52.344;16.928;2023-02-18T17:21:35;57.35;;;24.17;;
75272;SDS011;63869;52.344;16.928;2023-02-18T17:24:01;112.78;;;39.25;;
75272;SDS011;63869;52.344;16.928;2023-02-18T17:26:27;111.90;;;35.97;;
75272;SDS011;63869;52.344;16.928;2023-02-18T17:28:54;90.25;;;27.63;;
75272;SDS011;63869;52.344;16.928;2023-02-18T17:31:33;62.00;;;21.15;;
75272;SDS011;63869;52.344;16.928;2023-02-18T17:34:08;42.03;;;17.48;;
75272;SDS011;63869;52.344;16.928;2023-02-18T17:36:38;41.08;;;16.83;;
75272;SDS011;63869;52.344;16.928;2023-02-18T17:39:10;42.45;;;16.13;;
75272;SDS011;63869;52.344;16.928;2023-02-18T17:41:38;38.85;;;16.60;;
75272;SDS011;63869;52.344;16.928;2023-02-18T17:44:08;41.70;;;17.25;;
75272;SDS011;63869;52.344;16.928;2023-02-18T17:46:39;49.35;;;19.42;;
75272;SDS011;63869;52.344;16.928;2023-02-18T17:49:04;42.28;;;16.98;;
75272;SDS011;63869;52.344;16.928;2023-02-18T17:51:29;38.92;;;16.63;;
75272;SDS011;63869;52.344;16.928;2023-02-18T17:53:55;34.00;;;15.95;;
75272;SDS011;63869;52.344;16.928;2023-02-18T17:56:20;52.33;;;24.45;;
75272;SDS011;63869;52.344;16.928;2023-02-18T17:58:46;60.83;;;27.05;;
75272;SDS011;63869;52.344;16.928;2023-02-18T18:01:12;55.05;;;24.00;;
75272;SDS011;63869;52.344;16.928;2023-02-18T18:03:38;57.10;;;22.35;;
75272;SDS011;63869;52.344;16.928;2023-02-18T18:06:05;48.17;;;18.92;;
75272;SDS011;63869;52.344;16.928;2023-02-18T18:08:31;48.35;;;21.05;;
75272;SDS011;63869;52.344;16.928;2023-02-18T18:10:57;48.58;;;20.95;;
75272;SDS011;63869;52.344;16.928;2023-02-18T18:13:29;36.30;;;17.40;;
75272;SDS011;63869;52.344;16.928;2023-02-18T18:15:58;39.25;;;17.08;;
75272;SDS011;63869;52.344;16.928;2023-02-18T18:18:26;36.67;;;16.55;;
75272;SDS011;63869;52.344;16.928;2023-02-18T18:20:53;36.88;;;16.67;;
75272;SDS011;63869;52.344;16.928;2023-02-18T18:23:22;33.70;;;15.35;;
75272;SDS011;63869;52.344;16.928;2023-02-18T18:25:49;36.17;;;16.95;;
75272;SDS011;63869;52.344;16.928;2023-02-18T18:28:16;31.15;;;15.05;;
75272;SDS011;63869;52.344;16.928;2023-02-18T18:30:42;30.75;;;15.05;;
75272;SDS011;63869;52.344;16.928;2023-02-18T18:35:45;38.00;;;16.05;;
75272;SDS011;63869;52.344;16.928;2023-02-18T18:38:12;40.60;;;19.10;;
75272;SDS011;63869;52.344;16.928;2023-02-18T18:40:38;29.27;;;13.50;;
75272;SDS011;63869;52.344;16.928;2023-02-18T18:43:04;29.95;;;15.55;;
75272;SDS011;63869;52.344;16.928;2023-02-18T18:45:34;26.92;;;13.35;;
75272;SDS011;63869;52.344;16.928;2023-02-18T18:48:04;28.92;;;13.57;;
75272;SDS011;63869;52.344;16.928;2023-02-18T18:50:30;28.75;;;13.10;;
75272;SDS011;63869;52.344;16.928;2023-02-18T18:52:57;28.63;;;13.90;;
75272;SDS011;63869;52.344;16.928;2023-02-18T18:55:30;33.13;;;14.95;;
75272;SDS011;63869;52.344;16.928;2023-02-18T18:57:58;25.60;;;13.45;;
75272;SDS011;63869;52.344;16.928;2023-02-18T19:00:46;33.80;;;15.50;;
75272;SDS011;63869;52.344;16.928;2023-02-18T19:03:11;24.75;;;11.25;;
75272;SDS011;63869;52.344;16.928;2023-02-18T19:05:37;37.25;;;16.77;;
75272;SDS011;63869;52.344;16.928;2023-02-18T19:08:07;33.88;;;15.43;;
75272;SDS011;63869;52.344;16.928;2023-02-18T19:10:35;28.50;;;14.32;;
75272;SDS011;63869;52.344;16.928;2023-02-18T19:13:10;18.80;;;9.15;;
75272;SDS011;63869;52.344;16.928;2023-02-18T19:15:36;24.83;;;11.70;;
75272;SDS011;63869;52.344;16.928;2023-02-18T19:18:02;33.58;;;15.32;;
75272;SDS011;63869;52.344;16.928;2023-02-18T19:20:28;25.83;;;11.98;;
75272;SDS011;63869;52.344;16.928;2023-02-18T19:22:55;34.60;;;15.15;;
75272;SDS011;63869;52.344;16.928;2023-02-18T19:25:21;48.08;;;22.88;;
75272;SDS011;63869;52.344;16.928;2023-02-18T19:27:47;32.03;;;14.50;;
75272;SDS011;63869;52.344;16.928;2023-02-18T19:30:14;40.22;;;20.80;;
75272;SDS011;63869;52.344;16.928;2023-02-18T19:32:42;25.40;;;11.65;;
75272;SDS011;63869;52.344;16.928;2023-02-18T19:35:10;33.42;;;14.88;;
75272;SDS011;63869;52.344;16.928;2023-02-18T19:37:37;29.17;;;13.05;;
75272;SDS011;63869;52.344;16.928;2023-02-18T19:40:03;34.92;;;17.33;;
75272;SDS011;63869;52.344;16.928;2023-02-18T19:42:30;22.52;;;10.52;;
75272;SDS011;63869;52.344;16.928;2023-02-18T19:44:55;28.55;;;14.43;;
75272;SDS011;63869;52.344;16.928;2023-02-18T19:47:22;27.10;;;12.32;;
75272;SDS011;63869;52.344;16.928;2023-02-18T19:49:48;23.67;;;11.13;;
75272;SDS011;63869;52.344;16.928;2023-02-18T19:52:14;18.63;;;9.43;;
75272;SDS011;63869;52.344;16.928;2023-02-18T19:54:39;32.75;;;16.17;;
75272;SDS011;63869;52.344;16.928;2023-02-18T19:57:05;27.38;;;13.65;;
75272;SDS011;63869;52.344;16.928;2023-02-18T19:59:31;29.83;;;16.75;;
75272;SDS011;63869;52.344;16.928;2023-02-18T20:01:58;34.65;;;16.13;;
75272;SDS011;63869;52.344;16.928;2023-02-18T20:04:23;22.33;;;11.15;;
75272;SDS011;63869;52.344;16.928;2023-02-18T20:06:48;22.85;;;12.60;;
75272;SDS011;63869;52.344;16.928;2023-02-18T20:09:14;30.73;;;16.95;;
75272;SDS011;63869;52.344;16.928;2023-02-18T20:11:39;27.33;;;14.02;;
75272;SDS011;63869;52.344;16.928;2023-02-18T20:14:04;25.80;;;14.60;;
75272;SDS011;63869;52.344;16.928;2023-02-18T20:16:30;31.10;;;17.52;;
75272;SDS011;63869;52.344;16.928;2023-02-18T20:18:55;23.70;;;12.63;;
75272;SDS011;63869;52.344;16.928;2023-02-18T20:21:20;28.77;;;13.02;;
75272;SDS011;63869;52.344;16.928;2023-02-18T20:23:46;29.70;;;14.45;;
75272;SDS011;63869;52.344;16.928;2023-02-18T20:26:12;37.75;;;17.30;;
75272;SDS011;63869;52.344;16.928;2023-02-18T20:28:39;30.63;;;13.50;;